createdAt,value
2019-04-01T00:01:44.648Z,98482.00
2019-04-01T00:05:45.683Z,98478.00
2019-04-01T00:09:46.605Z,98480.00
2019-04-01T00:13:47.487Z,98472.00
2019-04-01T00:17:48.372Z,98476.00
2019-04-01T00:21:49.254Z,98469.00
2019-04-01T00:25:50.248Z,98463.00
2019-04-01T00:29:51.117Z,98463.00
2019-04-01T00:33:52.092Z,98476.00
2019-04-01T00:37:52.985Z,98475.00
2019-04-01T00:41:55.719Z,98471.00
2019-04-01T00:45:58.504Z,98468.00
2019-04-01T00:49:59.366Z,98467.00
2019-04-01T00:54:00.361Z,98473.00
2019-04-01T00:58:01.327Z,98472.00
2019-04-01T01:02:02.374Z,98462.00
2019-04-01T01:06:03.515Z,98456.00
2019-04-01T01:10:05.889Z,98464.00
2019-04-01T01:14:06.767Z,98452.00
2019-04-01T01:18:07.635Z,98454.00
2019-04-01T01:22:08.489Z,98453.00
2019-04-01T01:26:09.433Z,98451.00
2019-04-01T01:30:10.987Z,98455.00
2019-04-01T01:34:11.869Z,98458.00
2019-04-01T01:38:12.736Z,98461.00
2019-04-01T01:42:13.682Z,98449.00
2019-04-01T01:46:14.606Z,98457.00
2019-04-01T01:50:15.586Z,98454.00
2019-04-01T01:54:16.451Z,98448.00
2019-04-01T01:58:17.335Z,98450.00
2019-04-01T02:02:18.207Z,98445.00
2019-04-01T02:06:19.082Z,98449.00
2019-04-01T02:10:20.181Z,98454.00
2019-04-01T02:14:21.032Z,98457.00
2019-04-01T02:18:21.960Z,98447.00
2019-04-01T02:22:22.816Z,98444.00
2019-04-01T02:26:23.693Z,98417.00
2019-04-01T02:30:24.569Z,98444.00
2019-04-01T02:34:25.448Z,98441.00
2019-04-01T02:38:26.401Z,98434.00
2019-04-01T02:42:27.282Z,98439.00
2019-04-01T02:46:28.313Z,98433.00
2019-04-01T02:50:29.331Z,98433.00
2019-04-01T02:54:30.221Z,98439.00
2019-04-01T02:58:31.207Z,98437.00
2019-04-01T03:02:32.113Z,98438.00
2019-04-01T03:06:33.137Z,98432.00
2019-04-01T03:10:34.033Z,98430.00
2019-04-01T03:14:35.126Z,98430.00
2019-04-01T03:18:36.148Z,98426.00
2019-04-01T03:22:37.106Z,98421.00
2019-04-01T03:26:37.947Z,98418.00
2019-04-01T03:30:38.939Z,98422.00
2019-04-01T03:34:39.816Z,98432.00
2019-04-01T03:38:40.793Z,98433.00
2019-04-01T03:42:41.749Z,98430.00
2019-04-01T03:46:42.639Z,98432.00
2019-04-01T03:50:43.631Z,98426.00
2019-04-01T03:54:44.591Z,98430.00
2019-04-01T03:58:45.503Z,98433.00
2019-04-01T04:02:46.547Z,98433.00
2019-04-01T04:06:47.425Z,98444.00
2019-04-01T04:10:48.297Z,98429.00
2019-04-01T04:14:51.405Z,98424.00
2019-04-01T04:18:51.963Z,98438.00
2019-04-01T04:22:52.934Z,98421.00
2019-04-01T04:26:53.862Z,98429.00
2019-04-01T04:30:54.915Z,98434.00
2019-04-01T04:34:57.516Z,98421.00
2019-04-01T04:38:58.746Z,98426.00
2019-04-01T04:42:59.659Z,98423.00
2019-04-01T04:47:00.570Z,98432.00
2019-04-01T04:51:01.612Z,98435.00
2019-04-01T04:55:03.775Z,98428.00
2019-04-01T04:59:04.640Z,98434.00
2019-04-01T05:03:05.631Z,98428.00
2019-04-01T05:07:06.656Z,98431.00
2019-04-01T05:11:07.516Z,98424.00
2019-04-01T05:15:08.576Z,98436.00
2019-04-01T05:19:09.558Z,98433.00
2019-04-01T05:23:11.849Z,98432.00
2019-04-01T05:27:13.640Z,98433.00
2019-04-01T05:31:18.132Z,98440.00
2019-04-01T05:35:19.129Z,98439.00
2019-04-01T05:39:20.512Z,98445.00
2019-04-01T05:43:21.692Z,98449.00
2019-04-01T05:47:24.677Z,98449.00
2019-04-01T05:51:25.625Z,98457.00
2019-04-01T05:55:26.701Z,98451.00
2019-04-01T05:59:27.910Z,98457.00
2019-04-01T06:03:28.783Z,98452.00
2019-04-01T06:07:29.805Z,98456.00
2019-04-01T06:11:30.753Z,98458.00
2019-04-01T06:15:31.883Z,98463.00
2019-04-01T06:19:32.983Z,98462.00
2019-04-01T06:23:34.191Z,98467.00
2019-04-01T06:27:35.286Z,98447.00
2019-04-01T06:31:36.276Z,98466.00
2019-04-01T06:35:37.174Z,98456.00
2019-04-01T06:39:38.250Z,98459.00
2019-04-01T06:43:39.205Z,98462.00
2019-04-01T06:47:40.191Z,98459.00
2019-04-01T06:51:41.395Z,98461.00
2019-04-01T06:55:42.573Z,98456.00
2019-04-01T06:59:44.069Z,98459.00
2019-04-01T07:03:45.024Z,98328.00
2019-04-01T07:07:45.943Z,98452.00
2019-04-01T07:11:46.950Z,98449.00
2019-04-01T07:15:47.962Z,98447.00
2019-04-01T07:19:48.948Z,98449.00
2019-04-01T07:23:50.295Z,98443.00
2019-04-01T07:27:51.453Z,98445.00
2019-04-01T07:31:52.424Z,98435.00
2019-04-01T07:35:53.335Z,98437.00
2019-04-01T07:39:54.396Z,98441.00
2019-04-01T07:43:55.564Z,98429.00
2019-04-01T07:47:56.633Z,98431.00
2019-04-01T07:51:57.814Z,98433.00
2019-04-01T07:56:02.285Z,98427.00
2019-04-01T08:00:03.613Z,98421.00
2019-04-01T08:04:04.489Z,98424.00
2019-04-01T08:08:06.135Z,98418.00
2019-04-01T08:12:07.213Z,98418.00
2019-04-01T08:16:08.279Z,98407.00
2019-04-01T08:20:09.749Z,98420.00
2019-04-01T08:24:10.854Z,98410.00
2019-04-01T08:28:11.978Z,98390.00
2019-04-01T08:32:13.977Z,98412.00
2019-04-01T08:36:15.298Z,98411.00
2019-04-01T08:40:16.344Z,98412.00
2019-04-01T08:44:17.488Z,98413.00
2019-04-01T08:48:18.509Z,98406.00
2019-04-01T08:52:19.620Z,98406.00
2019-04-01T08:56:20.554Z,98403.00
2019-04-01T09:00:21.614Z,98406.00
2019-04-01T09:04:22.499Z,98405.00
2019-04-01T09:08:25.117Z,98394.00
2019-04-01T09:12:26.661Z,98400.00
2019-04-01T09:16:28.677Z,98389.00
2019-04-01T09:20:29.569Z,98395.00
2019-04-01T09:24:30.553Z,98397.00
2019-04-01T09:28:31.543Z,98390.00
2019-04-01T09:32:32.434Z,98377.00
2019-04-01T09:36:33.397Z,98384.00
2019-04-01T09:40:34.287Z,98375.00
2019-04-01T09:44:37.079Z,98378.00
2019-04-01T09:48:38.450Z,98375.00
2019-04-01T09:52:39.499Z,98363.00
2019-04-01T09:56:40.388Z,98370.00
2019-04-01T10:00:41.279Z,98370.00
2019-04-01T10:04:42.219Z,98359.00
2019-04-01T10:08:43.142Z,98357.00
2019-04-01T10:12:45.978Z,98357.00
2019-04-01T10:16:46.845Z,98340.00
2019-04-01T10:20:47.740Z,98331.00
2019-04-01T10:24:48.582Z,98342.00
2019-04-01T10:28:51.898Z,98330.00
2019-04-01T10:32:52.776Z,98334.00
2019-04-01T10:36:53.688Z,98332.00
2019-04-01T10:40:54.584Z,98335.00
2019-04-01T10:44:55.706Z,98340.00
2019-04-01T10:48:57.052Z,98333.00
2019-04-01T10:52:58.007Z,98321.00
2019-04-01T10:56:59.083Z,98312.00
2019-04-01T11:00:59.980Z,98314.00
2019-04-01T11:05:01.157Z,98328.00
2019-04-01T11:09:04.888Z,98305.00
2019-04-01T11:13:06.072Z,98306.00
2019-04-01T11:17:07.164Z,98307.00
2019-04-01T11:21:08.017Z,98294.00
2019-04-01T11:25:09.117Z,98294.00
2019-04-01T11:29:10.102Z,98289.00
2019-04-01T11:33:11.111Z,98289.00
2019-04-01T11:37:12.193Z,98281.00
2019-04-01T11:41:13.421Z,98275.00
2019-04-01T11:45:14.595Z,98269.00
2019-04-01T11:49:15.509Z,98263.00
2019-04-01T11:53:16.595Z,98256.00
2019-04-01T11:57:17.722Z,98249.00
2019-04-01T12:01:18.618Z,98235.00
2019-04-01T12:05:19.526Z,98242.00
2019-04-01T12:09:20.506Z,98232.00
2019-04-01T12:13:21.573Z,98223.00
2019-04-01T12:17:22.473Z,98225.00
2019-04-01T12:21:23.401Z,98227.00
2019-04-01T12:25:24.490Z,98216.00
2019-04-01T12:29:25.556Z,98209.00
2019-04-01T12:33:26.679Z,98204.00
2019-04-01T12:37:30.111Z,98213.00
2019-04-01T12:41:30.464Z,98197.00
2019-04-01T12:45:31.502Z,98200.00
2019-04-01T12:49:32.369Z,98194.00
2019-04-01T12:53:33.429Z,98189.00
2019-04-01T12:57:34.476Z,98170.00
2019-04-01T13:01:35.477Z,98180.00
2019-04-01T13:05:36.322Z,98169.00
2019-04-01T13:09:37.346Z,98168.00
2019-04-01T13:13:38.391Z,98163.00
2019-04-01T13:17:39.320Z,98159.00
2019-04-01T13:21:40.358Z,98149.00
2019-04-01T13:25:42.252Z,98148.00
2019-04-01T13:29:43.446Z,98146.00
2019-04-01T13:33:44.961Z,98138.00
2019-04-01T13:37:46.934Z,98137.00
2019-04-01T13:41:48.569Z,98127.00
2019-04-01T13:45:50.334Z,98123.00
2019-04-01T13:49:51.515Z,98120.00
2019-04-01T13:54:07.665Z,98108.00
2019-04-01T13:57:55.782Z,98107.00
2019-04-01T14:01:57.083Z,98099.00
2019-04-01T14:05:58.335Z,98100.00
2019-04-01T14:09:59.355Z,98101.00
2019-04-01T14:14:00.216Z,98090.00
2019-04-01T14:18:04.387Z,98095.00
2019-04-01T14:22:05.223Z,98077.00
2019-04-01T14:26:06.142Z,98080.00
2019-04-01T14:30:09.630Z,98066.00
2019-04-01T14:34:13.685Z,98077.00
2019-04-01T14:38:14.714Z,98063.00
2019-04-01T14:42:15.706Z,98055.00
2019-04-01T14:46:16.811Z,98056.00
2019-04-01T14:50:17.826Z,98047.00
2019-04-01T14:54:20.680Z,98041.00
2019-04-01T14:58:23.174Z,98032.00
2019-04-01T15:02:25.259Z,98041.00
2019-04-01T15:06:26.201Z,98035.00
2019-04-01T15:10:27.428Z,98030.00
2019-04-01T15:14:28.496Z,98030.00
2019-04-01T15:18:29.413Z,98028.00
2019-04-01T15:22:30.312Z,98021.00
2019-04-01T15:26:31.408Z,98022.00
2019-04-01T15:30:32.376Z,98015.00
2019-04-01T15:34:33.371Z,98017.00
2019-04-01T15:38:34.438Z,97998.00
2019-04-01T15:42:35.424Z,97997.00
2019-04-01T15:46:36.404Z,97998.00
2019-04-01T15:50:38.699Z,97989.00
2019-04-01T15:54:39.853Z,97984.00
2019-04-01T15:58:40.794Z,97986.00
2019-04-01T16:02:41.899Z,97987.00
2019-04-01T16:06:42.794Z,97974.00
2019-04-01T16:10:43.741Z,97973.00
2019-04-01T16:14:44.627Z,97973.00
2019-04-01T16:18:45.599Z,97961.00
2019-04-01T16:22:46.487Z,97962.00
2019-04-01T16:26:47.343Z,97953.00
2019-04-01T16:30:48.239Z,97952.00
2019-04-01T16:34:49.368Z,97940.00
2019-04-01T16:38:50.294Z,97949.00
2019-04-01T16:42:51.375Z,97945.00
2019-04-01T16:46:52.504Z,97943.00
2019-04-01T16:50:53.592Z,97949.00
2019-04-01T16:54:57.700Z,97941.00
2019-04-01T16:58:59.120Z,97944.00
2019-04-01T17:03:01.213Z,97943.00
2019-04-01T17:07:02.212Z,97938.00
2019-04-01T17:11:03.310Z,97946.00
2019-04-01T17:15:04.723Z,97946.00
2019-04-01T17:19:05.670Z,97943.00
2019-04-01T17:23:06.676Z,97941.00
2019-04-01T17:27:12.109Z,97939.00
2019-04-01T17:31:13.087Z,97929.00
2019-04-01T17:35:14.297Z,97936.00
2019-04-01T17:39:15.144Z,97927.00
2019-04-01T17:43:16.454Z,97930.00
2019-04-01T17:47:17.834Z,97929.00
2019-04-01T17:51:18.834Z,97916.00
2019-04-01T17:55:19.930Z,97926.00
2019-04-01T17:59:21.036Z,97926.00
2019-04-01T18:03:22.150Z,97927.00
2019-04-01T18:07:24.548Z,97924.00
2019-04-01T18:11:26.178Z,97925.00
2019-04-01T18:15:28.659Z,97921.00
2019-04-01T18:19:29.660Z,97922.00
2019-04-01T18:23:30.764Z,97929.00
2019-04-01T18:27:31.798Z,97931.00
2019-04-01T18:31:33.184Z,97922.00
2019-04-01T18:35:34.240Z,97927.00
2019-04-01T18:39:47.580Z,97930.00
2019-04-01T18:43:38.068Z,97935.00
2019-04-01T18:47:39.327Z,97946.00
2019-04-01T18:51:40.381Z,97953.00
2019-04-01T18:55:41.677Z,97952.00
2019-04-01T18:59:42.646Z,97955.00
2019-04-01T19:03:43.743Z,97949.00
2019-04-01T19:07:44.759Z,97953.00
2019-04-01T19:11:45.688Z,97948.00
2019-04-01T19:15:47.307Z,97962.00
2019-04-01T19:19:48.863Z,97954.00
2019-04-01T19:23:50.118Z,97957.00
2019-04-01T19:27:50.992Z,97953.00
2019-04-01T19:31:52.242Z,97958.00
2019-04-01T19:35:53.144Z,97960.00
2019-04-01T19:39:54.018Z,97950.00
2019-04-01T19:43:54.872Z,97961.00
2019-04-01T19:47:57.395Z,97952.00
2019-04-01T19:51:58.723Z,97952.00
2019-04-01T19:55:59.663Z,97957.00
2019-04-01T20:00:00.817Z,97956.00
2019-04-01T20:04:02.041Z,97948.00
2019-04-01T20:08:03.218Z,97946.00
2019-04-01T20:12:04.510Z,97958.00
2019-04-01T20:16:05.609Z,97951.00
2019-04-01T20:20:06.874Z,97943.00
2019-04-01T20:24:07.895Z,97952.00
2019-04-01T20:28:08.918Z,97947.00
2019-04-01T20:32:17.335Z,97944.00
2019-04-01T20:36:12.864Z,97939.00
2019-04-01T20:40:14.555Z,97934.00
2019-04-01T20:44:15.451Z,97930.00
2019-04-01T20:48:16.523Z,97929.00
2019-04-01T20:52:17.543Z,97927.00
2019-04-01T20:56:20.113Z,97925.00
2019-04-01T21:00:21.425Z,97919.00
2019-04-01T21:04:22.325Z,97918.00
2019-04-01T21:08:23.245Z,97907.00
2019-04-01T21:12:24.125Z,97911.00
2019-04-01T21:16:25.203Z,97904.00
2019-04-01T21:20:26.205Z,97903.00
2019-04-01T21:24:27.113Z,97910.00
2019-04-01T21:28:28.016Z,97907.00
2019-04-01T21:32:28.962Z,97901.00
2019-04-01T21:36:29.963Z,97898.00
2019-04-01T21:40:30.868Z,97890.00
2019-04-01T21:44:31.726Z,97876.00
2019-04-01T21:48:32.998Z,97874.00
2019-04-01T21:52:34.301Z,97878.00
2019-04-01T21:56:35.306Z,97867.00
2019-04-01T22:00:38.305Z,97866.00
2019-04-01T22:04:39.160Z,97866.00
2019-04-01T22:08:40.654Z,97861.00
2019-04-01T22:12:41.565Z,97859.00
2019-04-01T22:16:42.541Z,97857.00
2019-04-01T22:20:43.463Z,97851.00
2019-04-01T22:24:44.290Z,97851.00
2019-04-01T22:28:45.181Z,97850.00
2019-04-01T22:32:46.032Z,97842.00
2019-04-01T22:36:46.927Z,97838.00
2019-04-01T22:40:47.821Z,97838.00
2019-04-01T22:44:48.663Z,97831.00
2019-04-01T22:48:49.642Z,97831.00
2019-04-01T22:52:50.609Z,97820.00
2019-04-01T22:56:51.486Z,97819.00
2019-04-01T23:00:52.607Z,97813.00
2019-04-01T23:04:53.470Z,97818.00
2019-04-01T23:08:54.370Z,97813.00
2019-04-01T23:12:55.352Z,97808.00
2019-04-01T23:16:56.210Z,97802.00
2019-04-01T23:20:57.111Z,97799.00
2019-04-01T23:24:58.065Z,97789.00
2019-04-01T23:28:58.920Z,97787.00
2019-04-01T23:32:59.972Z,97783.00
2019-04-01T23:37:00.846Z,97789.00
2019-04-01T23:41:01.730Z,97790.00
2019-04-01T23:45:04.746Z,97774.00
2019-04-01T23:49:05.660Z,97778.00
2019-04-01T23:53:06.717Z,97766.00
2019-04-01T23:57:07.596Z,97768.00
